Nyk Constellation — V7NP4 — position and weather

sailwx.info

Track history (hours):
 
Tides and Currents Weather Stations Pressure Air Temp Water Temp Dewpoint Dewpoint Depression Visibility Wind Speed Wind Dir Waves Ship Positions

Nyk Constellation

Last reported at 2015-Mar-02 09:33 UTC. Time now 2015-Mar-06 09:01 UTC.
Position N 38°13' W 124°10'.

Length 294 m; draft 11.4 m.

Type: Cargo ship. MMSI: 538002992.

Date/timePositionNaut miles runAvg speedWind from/ knotsBaromVisibWave heightAir tempDewpointWater temp
2015-Mar-02 09:33N 38°13' W 124°10'1918.8
2015-Mar-02 08:34N 38°12' W 123°46'1312.7
2015-Mar-02 07:33N 38°10' W 123°30'1010.5
2015-Mar-02 06:34N 38°06' W 123°17'1616.3
2015-Mar-02 05:33N 37°56' W 123°02'1615.8
2015-Mar-02 04:33N 37°48' W 122°45'1211.5
2015-Mar-02 03:33N 37°49' W 122°30'9 8.9
2015-Mar-02 02:33N 37°48' W 122°19'0 0.1
2015-Mar-02 01:33N 37°48' W 122°19'0 0.0
2015-Mar-02 00:33N 37°48' W 122°19'0 0.0
2015-Mar-01 23:33N 37°48' W 122°19'0 0.0
2015-Mar-01 22:33N 37°48' W 122°19'0 0.0
2015-Mar-01 21:33N 37°48' W 122°19'0 0.0
2015-Mar-01 20:33N 37°48' W 122°19'0 0.0
2015-Mar-01 19:33N 37°48' W 122°19'0 0.0
2015-Mar-01 18:33N 37°48' W 122°19'0 0.0
2015-Mar-01 17:33N 37°48' W 122°19'0 0.0
2015-Mar-01 16:33N 37°48' W 122°19'0 0.0
2015-Mar-01 15:33N 37°48' W 122°19'0 0.0
2015-Mar-01 14:33N 37°48' W 122°19'0 0.0
2015-Mar-01 13:33N 37°48' W 122°19'0 0.0
2015-Mar-01 12:33N 37°48' W 122°19'0 0.0
2015-Mar-01 11:33N 37°48' W 122°19'0 0.0
2015-Mar-01 10:33N 37°48' W 122°19'0 0.0
2015-Mar-01 09:33N 37°48' W 122°19'0 0.0
2015-Mar-01 08:33N 37°48' W 122°19'0 0.0
2015-Mar-01 07:33N 37°48' W 122°19'0 0.0
2015-Mar-01 06:33N 37°48' W 122°19'0 0.0
2015-Mar-01 05:30N 37°48' W 122°19'0 0.0
2015-Mar-01 04:33N 37°48' W 122°19'0 0.0
2015-Mar-01 03:33N 37°48' W 122°19'0 0.0
2015-Mar-01 02:33N 37°48' W 122°19'0 0.0
2015-Mar-01 01:33N 37°48' W 122°19'0 0.0
2015-Mar-01 00:33N 37°48' W 122°19'0 0.0
2015-Feb-28 23:33N 37°48' W 122°19'0 0.0
2015-Feb-28 22:33N 37°48' W 122°19'0 0.0
2015-Feb-28 21:33N 37°48' W 122°19'0 0.0
2015-Feb-28 20:33N 37°48' W 122°19'0 0.0
2015-Feb-28 19:33N 37°48' W 122°19'0 0.0
2015-Feb-28 18:33N 37°48' W 122°19'0 0.0
2015-Feb-28 17:33N 37°48' W 122°19'0 0.0
2015-Feb-28 16:33N 37°48' W 122°19'0 0.0
2015-Feb-28 15:33N 37°48' W 122°19'0 0.0
2015-Feb-28 14:33N 37°48' W 122°19'1 0.8
2015-Feb-28 13:33N 37°48' W 122°18'7 6.9
2015-Feb-28 12:33N 37°49' W 122°27'1111.4
2015-Feb-28 11:33N 37°45' W 122°40'8513.9
2015-Feb-28 05:27N 36°20' W 122°45'1516.3
2015-Feb-28 04:32N 36°05' W 122°46'1616.3
2015-Feb-28 03:33N 35°49' W 122°48'10 0.6
2015-Feb-27 10:21N 35°42' W 122°55'5 2.4
2015-Feb-27 08:22N 35°46' W 122°56'2 2.6
2015-Feb-27 07:29N 35°48' W 122°56'3 2.8
2015-Feb-27 06:32N 35°51' W 122°56'3 2.7
2015-Feb-27 05:32N 35°54' W 122°55'3 2.6
2015-Feb-27 04:32N 35°56' W 122°55'3 2.6
2015-Feb-27 03:33N 35°59' W 122°55'3 2.7
2015-Feb-27 02:33N 36°02' W 122°54'3 3.0
2015-Feb-27 01:33N 36°04' W 122°53'3 2.9
2015-Feb-27 00:33N 36°07' W 122°53'3 2.7
2015-Feb-26 23:33N 36°10' W 122°53'3 2.6
2015-Feb-26 22:33N 36°13' W 122°52'2 2.4
2015-Feb-26 21:32N 36°15' W 122°52'3 2.2
2015-Feb-26 20:23N 36°18' W 122°52'3 2.3
2015-Feb-26 19:16N 36°20' W 122°53'4 2.3
2015-Feb-26 17:32N 36°24' W 122°54'2 2.3
2015-Feb-26 16:34N 36°26' W 122°54'3 2.2
2015-Feb-26 15:06N 36°29' W 122°56'2 2.2
2015-Feb-26 14:12N 36°31' W 122°57'2 2.2
2015-Feb-26 13:26N 36°33' W 122°58'6 2.1
2015-Feb-26 10:32N 36°38' W 123°02'2 1.9
2015-Feb-26 09:32N 36°39' W 123°03'2 1.8
2015-Feb-26 08:32N 36°41' W 123°04'2 2.0
2015-Feb-26 07:32N 36°43' W 123°04'2 2.3
2015-Feb-26 06:28N 36°45' W 123°05'2 2.1
2015-Feb-26 05:16N 36°47' W 123°06'2 2.0
2015-Feb-26 04:28N 36°49' W 123°07'2 2.0
2015-Feb-26 03:31N 36°51' W 123°07'2 2.0
2015-Feb-26 02:28N 36°53' W 123°07'2 1.9
2015-Feb-26 01:28N 36°55' W 123°09'2 1.9
2015-Feb-26 00:22N 36°57' W 123°10'2 1.9
2015-Feb-25 23:28N 36°58' W 123°10'2 1.8
2015-Feb-25 22:28N 36°60' W 123°11'2 1.6
2015-Feb-25 21:28N 37°01' W 123°12'2 1.7
2015-Feb-25 20:28N 37°03' W 123°12'2 1.8
2015-Feb-25 19:28N 37°05' W 123°13'2 1.8
2015-Feb-25 18:31N 37°06' W 123°14'2 1.8
2015-Feb-25 17:31N 37°08' W 123°15'2 1.7
2015-Feb-25 16:28N 37°10' W 123°16'2 1.5
2015-Feb-25 15:28N 37°11' W 123°16'1 1.5
2015-Feb-25 14:28N 37°13' W 123°17'1 1.4
2015-Feb-25 13:28N 37°14' W 123°17'1 1.4
2015-Feb-25 12:31N 37°15' W 123°18'2 1.4
2015-Feb-25 11:10N 37°17' W 123°19'1 1.2
2015-Feb-25 10:28N 37°17' W 123°20'4 4.9
2015-Feb-25 09:33N 37°15' W 123°15'1111.2
2015-Feb-25 08:33N 37°07' W 123°05'1111.4
2015-Feb-25 07:33N 36°60' W 122°54'1111.1
2015-Feb-25 06:33N 36°52' W 122°44'1110.9
2015-Feb-25 05:33N 36°45' W 122°34'1110.7
2015-Feb-25 04:33N 36°37' W 122°24'1010.4
2015-Feb-25 03:33N 36°29' W 122°17'1111.0
2015-Feb-25 02:33N 36°19' W 122°10'1111.4
2015-Feb-25 01:33N 36°09' W 122°04'1110.9
2015-Feb-25 00:33N 35°60' W 121°57'1111.0
2015-Feb-24 23:33N 35°50' W 121°51'1110.9
2015-Feb-24 22:33N 35°40' W 121°44'1110.9
2015-Feb-24 21:33N 35°31' W 121°38'2311.3
2015-Feb-24 19:31N 35°11' W 121°24'1211.2
2015-Feb-24 18:28N 35°00' W 121°17'1011.5
2015-Feb-24 17:33N 34°51' W 121°11'1111.1
2015-Feb-24 16:33N 34°41' W 121°05'1111.0
2015-Feb-24 15:33N 34°32' W 120°58'1210.4
2015-Feb-24 14:26N 34°25' W 120°47'1111.5
2015-Feb-24 13:30N 34°22' W 120°34'12010.1
2015-Feb-24 01:33N 33°45' W 118°16'1 1.0
2015-Feb-24 00:33N 33°46' W 118°15'0 0.0
2015-Feb-23 23:34N 33°46' W 118°15'0 0.0
2015-Feb-23 22:34N 33°46' W 118°15'0 0.0
2015-Feb-23 21:33N 33°46' W 118°15'0 0.0
2015-Feb-23 20:33N 33°46' W 118°15'0 0.0
2015-Feb-23 19:34N 33°46' W 118°15'0 0.0
2015-Feb-23 18:33N 33°46' W 118°15'0 0.0
2015-Feb-23 17:31N 33°46' W 118°15'0 0.0
2015-Feb-23 16:33N 33°46' W 118°15'0 0.0
2015-Feb-23 15:30N 33°46' W 118°15'0 0.0
2015-Feb-23 14:34N 33°46' W 118°15'0 0.0
2015-Feb-23 13:33N 33°46' W 118°15'0 0.0
2015-Feb-23 12:33N 33°46' W 118°15'0 0.0
2015-Feb-23 11:33N 33°46' W 118°15'0 0.0
2015-Feb-23 10:30N 33°46' W 118°15'0 0.0
2015-Feb-23 09:33N 33°46' W 118°15'0 0.0
2015-Feb-23 08:34N 33°46' W 118°15'0 0.0
2015-Feb-23 07:33N 33°46' W 118°15'0 0.0
2015-Feb-23 06:33N 33°46' W 118°15'0 0.0
2015-Feb-23 05:34N 33°46' W 118°15'0 0.0
2015-Feb-23 04:33N 33°46' W 118°15'0 0.0
2015-Feb-23 03:33N 33°46' W 118°15'0 0.0
2015-Feb-23 02:33N 33°46' W 118°15'0 0.0
2015-Feb-23 01:33N 33°46' W 118°15'0 0.0
2015-Feb-23 00:33N 33°46' W 118°15'0 0.0
2015-Feb-22 23:33N 33°46' W 118°15'0 0.0
2015-Feb-22 22:33N 33°46' W 118°15'0 0.0
2015-Feb-22 21:33N 33°46' W 118°15'0 0.0
2015-Feb-22 20:33N 33°46' W 118°15'0 0.0
2015-Feb-22 19:34N 33°46' W 118°15'0 0.0
2015-Feb-22 18:34N 33°46' W 118°15'0 0.0
2015-Feb-22 17:33N 33°46' W 118°15'0 0.0
2015-Feb-22 16:33N 33°46' W 118°15'0 0.0
2015-Feb-22 15:34N 33°46' W 118°15'0 0.0
2015-Feb-22 14:34N 33°46' W 118°15'0 0.0
2015-Feb-22 13:33N 33°46' W 118°15'0 0.0
2015-Feb-22 12:33N 33°46' W 118°15'0 0.0
2015-Feb-22 11:34N 33°46' W 118°15'0 0.0
2015-Feb-22 10:34N 33°46' W 118°15'0 0.0
2015-Feb-22 09:34N 33°46' W 118°15'0 0.0
2015-Feb-22 08:25N 33°46' W 118°15'0 0.0
2015-Feb-22 07:30N 33°46' W 118°15'0 0.0
2015-Feb-22 06:30N 33°46' W 118°15'0 0.0
2015-Feb-22 05:30N 33°46' W 118°15'0 0.0
2015-Feb-22 04:30N 33°46' W 118°15'0 0.0
2015-Feb-22 03:30N 33°46' W 118°15'0 0.0
2015-Feb-22 02:30N 33°46' W 118°15'0 0.0
2015-Feb-22 01:30N 33°46' W 118°15'0 0.0
2015-Feb-22 00:34N 33°46' W 118°15'0 0.0
2015-Feb-21 23:34N 33°46' W 118°15'0 0.0
2015-Feb-21 22:33N 33°46' W 118°15'0 0.0
2015-Feb-21 21:33N 33°46' W 118°15'0 0.0
2015-Feb-21 20:33N 33°46' W 118°15'0 0.0
2015-Feb-21 19:34N 33°46' W 118°15'0 0.0
2015-Feb-21 18:33N 33°46' W 118°15'0 0.0
2015-Feb-21 17:33N 33°46' W 118°15'0 0.0
2015-Feb-21 16:34N 33°46' W 118°15'0 0.0
2015-Feb-21 15:33N 33°46' W 118°15'0 0.0
2015-Feb-21 14:34N 33°46' W 118°15'0 0.0
2015-Feb-21 13:33N 33°46' W 118°15'0 0.0
2015-Feb-21 12:30N 33°46' W 118°15'0 0.0
2015-Feb-21 11:33N 33°46' W 118°15'0 0.0
2015-Feb-21 10:34N 33°46' W 118°15'0 0.0
2015-Feb-21 09:34N 33°46' W 118°15'0 0.0
2015-Feb-21 06:24N 33°46' W 118°15'0 0.2
2015-Feb-21 05:33N 33°46' W 118°16'4 3.7
2015-Feb-21 04:33N 33°42' W 118°14'2 0.5
2015-Feb-21 00:23N 33°41' W 118°12'0 0.0
2015-Feb-20 23:17N 33°41' W 118°12'0 0.0
2015-Feb-20 22:29N 33°41' W 118°12'0 0.0
2015-Feb-20 21:32N 33°41' W 118°12'0 0.1
2015-Feb-20 20:32N 33°41' W 118°12'0 0.2
2015-Feb-20 19:26N 33°41' W 118°12'13 7.1
2015-Feb-20 17:33N 33°28' W 118°06'1111.2
2015-Feb-20 16:33N 33°18' W 118°02'5 5.2
2015-Feb-20 15:33N 33°14' W 117°58'0 0.2
2015-Feb-20 14:33N 33°14' W 117°58'4 4.0
2015-Feb-20 13:33N 33°15' W 118°03'5 5.2
2015-Feb-20 12:33N 33°11' W 117°59'1211.5
2015-Feb-20 11:33N 32°60' W 117°54'1010.4
2015-Feb-20 10:33N 32°50' W 117°51'1110.8
2015-Feb-20 09:33N 32°39' W 117°48'  
Track history (hours):
 
Tides and Currents Weather Stations Pressure Air Temp Water Temp Dewpoint Dewpoint Depression Visibility Wind Speed Wind Dir Waves Ship Positions

Nyk Constellation

Last reported at 2015-Mar-02 09:33 UTC. Time now 2015-Mar-06 09:01 UTC.
Position N 38°13' W 124°10'.

Length 294 m; draft 11.4 m.

Type: Cargo ship. MMSI: 538002992.

Date/timePositionNaut miles runAvg speedWind from/ knotsBaromVisibWave heightAir tempDewpointWater temp
2015-Mar-02 09:33N 38°13' W 124°10'1918.8
2015-Mar-02 08:34N 38°12' W 123°46'1312.7
2015-Mar-02 07:33N 38°10' W 123°30'1010.5
2015-Mar-02 06:34N 38°06' W 123°17'1616.3
2015-Mar-02 05:33N 37°56' W 123°02'1615.8
2015-Mar-02 04:33N 37°48' W 122°45'1211.5
2015-Mar-02 03:33N 37°49' W 122°30'9 8.9
2015-Mar-02 02:33N 37°48' W 122°19'0 0.1
2015-Mar-02 01:33N 37°48' W 122°19'0 0.0
2015-Mar-02 00:33N 37°48' W 122°19'0 0.0
2015-Mar-01 23:33N 37°48' W 122°19'0 0.0
2015-Mar-01 22:33N 37°48' W 122°19'0 0.0
2015-Mar-01 21:33N 37°48' W 122°19'0 0.0
2015-Mar-01 20:33N 37°48' W 122°19'0 0.0
2015-Mar-01 19:33N 37°48' W 122°19'0 0.0
2015-Mar-01 18:33N 37°48' W 122°19'0 0.0
2015-Mar-01 17:33N 37°48' W 122°19'0 0.0
2015-Mar-01 16:33N 37°48' W 122°19'0 0.0
2015-Mar-01 15:33N 37°48' W 122°19'0 0.0
2015-Mar-01 14:33N 37°48' W 122°19'0 0.0
2015-Mar-01 13:33N 37°48' W 122°19'0 0.0
2015-Mar-01 12:33N 37°48' W 122°19'0 0.0
2015-Mar-01 11:33N 37°48' W 122°19'0 0.0
2015-Mar-01 10:33N 37°48' W 122°19'0 0.0
2015-Mar-01 09:33N 37°48' W 122°19'0 0.0
2015-Mar-01 08:33N 37°48' W 122°19'0 0.0
2015-Mar-01 07:33N 37°48' W 122°19'0 0.0
2015-Mar-01 06:33N 37°48' W 122°19'0 0.0
2015-Mar-01 05:30N 37°48' W 122°19'0 0.0
2015-Mar-01 04:33N 37°48' W 122°19'0 0.0
2015-Mar-01 03:33N 37°48' W 122°19'0 0.0
2015-Mar-01 02:33N 37°48' W 122°19'0 0.0
2015-Mar-01 01:33N 37°48' W 122°19'0 0.0
2015-Mar-01 00:33N 37°48' W 122°19'0 0.0
2015-Feb-28 23:33N 37°48' W 122°19'0 0.0
2015-Feb-28 22:33N 37°48' W 122°19'0 0.0
2015-Feb-28 21:33N 37°48' W 122°19'0 0.0
2015-Feb-28 20:33N 37°48' W 122°19'0 0.0
2015-Feb-28 19:33N 37°48' W 122°19'0 0.0
2015-Feb-28 18:33N 37°48' W 122°19'0 0.0
2015-Feb-28 17:33N 37°48' W 122°19'0 0.0
2015-Feb-28 16:33N 37°48' W 122°19'0 0.0
2015-Feb-28 15:33N 37°48' W 122°19'0 0.0
2015-Feb-28 14:33N 37°48' W 122°19'1 0.8
2015-Feb-28 13:33N 37°48' W 122°18'7 6.9
2015-Feb-28 12:33N 37°49' W 122°27'1111.4
2015-Feb-28 11:33N 37°45' W 122°40'8513.9
2015-Feb-28 05:27N 36°20' W 122°45'1516.3
2015-Feb-28 04:32N 36°05' W 122°46'1616.3
2015-Feb-28 03:33N 35°49' W 122°48'10 0.6
2015-Feb-27 10:21N 35°42' W 122°55'5 2.4
2015-Feb-27 08:22N 35°46' W 122°56'2 2.6
2015-Feb-27 07:29N 35°48' W 122°56'3 2.8
2015-Feb-27 06:32N 35°51' W 122°56'3 2.7
2015-Feb-27 05:32N 35°54' W 122°55'3 2.6
2015-Feb-27 04:32N 35°56' W 122°55'3 2.6
2015-Feb-27 03:33N 35°59' W 122°55'3 2.7
2015-Feb-27 02:33N 36°02' W 122°54'3 3.0
2015-Feb-27 01:33N 36°04' W 122°53'3 2.9
2015-Feb-27 00:33N 36°07' W 122°53'3 2.7
2015-Feb-26 23:33N 36°10' W 122°53'3 2.6
2015-Feb-26 22:33N 36°13' W 122°52'2 2.4
2015-Feb-26 21:32N 36°15' W 122°52'3 2.2
2015-Feb-26 20:23N 36°18' W 122°52'3 2.3
2015-Feb-26 19:16N 36°20' W 122°53'4 2.3
2015-Feb-26 17:32N 36°24' W 122°54'2 2.3
2015-Feb-26 16:34N 36°26' W 122°54'3 2.2
2015-Feb-26 15:06N 36°29' W 122°56'2 2.2
2015-Feb-26 14:12N 36°31' W 122°57'2 2.2
2015-Feb-26 13:26N 36°33' W 122°58'6 2.1
2015-Feb-26 10:32N 36°38' W 123°02'2 1.9
2015-Feb-26 09:32N 36°39' W 123°03'2 1.8
2015-Feb-26 08:32N 36°41' W 123°04'2 2.0
2015-Feb-26 07:32N 36°43' W 123°04'2 2.3
2015-Feb-26 06:28N 36°45' W 123°05'2 2.1
2015-Feb-26 05:16N 36°47' W 123°06'2 2.0
2015-Feb-26 04:28N 36°49' W 123°07'2 2.0
2015-Feb-26 03:31N 36°51' W 123°07'2 2.0
2015-Feb-26 02:28N 36°53' W 123°07'2 1.9
2015-Feb-26 01:28N 36°55' W 123°09'2 1.9
2015-Feb-26 00:22N 36°57' W 123°10'2 1.9
2015-Feb-25 23:28N 36°58' W 123°10'2 1.8
2015-Feb-25 22:28N 36°60' W 123°11'2 1.6
2015-Feb-25 21:28N 37°01' W 123°12'2 1.7
2015-Feb-25 20:28N 37°03' W 123°12'2 1.8
2015-Feb-25 19:28N 37°05' W 123°13'2 1.8
2015-Feb-25 18:31N 37°06' W 123°14'2 1.8
2015-Feb-25 17:31N 37°08' W 123°15'2 1.7
2015-Feb-25 16:28N 37°10' W 123°16'2 1.5
2015-Feb-25 15:28N 37°11' W 123°16'1 1.5
2015-Feb-25 14:28N 37°13' W 123°17'1 1.4
2015-Feb-25 13:28N 37°14' W 123°17'1 1.4
2015-Feb-25 12:31N 37°15' W 123°18'2 1.4
2015-Feb-25 11:10N 37°17' W 123°19'1 1.2
2015-Feb-25 10:28N 37°17' W 123°20'4 4.9
2015-Feb-25 09:33N 37°15' W 123°15'1111.2
2015-Feb-25 08:33N 37°07' W 123°05'1111.4
2015-Feb-25 07:33N 36°60' W 122°54'1111.1
2015-Feb-25 06:33N 36°52' W 122°44'1110.9
2015-Feb-25 05:33N 36°45' W 122°34'1110.7
2015-Feb-25 04:33N 36°37' W 122°24'1010.4
2015-Feb-25 03:33N 36°29' W 122°17'1111.0
2015-Feb-25 02:33N 36°19' W 122°10'1111.4
2015-Feb-25 01:33N 36°09' W 122°04'1110.9
2015-Feb-25 00:33N 35°60' W 121°57'1111.0
2015-Feb-24 23:33N 35°50' W 121°51'1110.9
2015-Feb-24 22:33N 35°40' W 121°44'1110.9
2015-Feb-24 21:33N 35°31' W 121°38'2311.3
2015-Feb-24 19:31N 35°11' W 121°24'1211.2
2015-Feb-24 18:28N 35°00' W 121°17'1011.5
2015-Feb-24 17:33N 34°51' W 121°11'1111.1
2015-Feb-24 16:33N 34°41' W 121°05'1111.0
2015-Feb-24 15:33N 34°32' W 120°58'1210.4
2015-Feb-24 14:26N 34°25' W 120°47'1111.5
2015-Feb-24 13:30N 34°22' W 120°34'12010.1
2015-Feb-24 01:33N 33°45' W 118°16'1 1.0
2015-Feb-24 00:33N 33°46' W 118°15'0 0.0
2015-Feb-23 23:34N 33°46' W 118°15'0 0.0
2015-Feb-23 22:34N 33°46' W 118°15'0 0.0
2015-Feb-23 21:33N 33°46' W 118°15'0 0.0
2015-Feb-23 20:33N 33°46' W 118°15'0 0.0
2015-Feb-23 19:34N 33°46' W 118°15'0 0.0
2015-Feb-23 18:33N 33°46' W 118°15'0 0.0
2015-Feb-23 17:31N 33°46' W 118°15'0 0.0
2015-Feb-23 16:33N 33°46' W 118°15'0 0.0
2015-Feb-23 15:30N 33°46' W 118°15'0 0.0
2015-Feb-23 14:34N 33°46' W 118°15'0 0.0
2015-Feb-23 13:33N 33°46' W 118°15'0 0.0
2015-Feb-23 12:33N 33°46' W 118°15'0 0.0
2015-Feb-23 11:33N 33°46' W 118°15'0 0.0
2015-Feb-23 10:30N 33°46' W 118°15'0 0.0
2015-Feb-23 09:33N 33°46' W 118°15'0 0.0
2015-Feb-23 08:34N 33°46' W 118°15'0 0.0
2015-Feb-23 07:33N 33°46' W 118°15'0 0.0
2015-Feb-23 06:33N 33°46' W 118°15'0 0.0
2015-Feb-23 05:34N 33°46' W 118°15'0 0.0
2015-Feb-23 04:33N 33°46' W 118°15'0 0.0
2015-Feb-23 03:33N 33°46' W 118°15'0 0.0
2015-Feb-23 02:33N 33°46' W 118°15'0 0.0
2015-Feb-23 01:33N 33°46' W 118°15'0 0.0
2015-Feb-23 00:33N 33°46' W 118°15'0 0.0
2015-Feb-22 23:33N 33°46' W 118°15'0 0.0
2015-Feb-22 22:33N 33°46' W 118°15'0 0.0
2015-Feb-22 21:33N 33°46' W 118°15'0 0.0
2015-Feb-22 20:33N 33°46' W 118°15'0 0.0
2015-Feb-22 19:34N 33°46' W 118°15'0 0.0
2015-Feb-22 18:34N 33°46' W 118°15'0 0.0
2015-Feb-22 17:33N 33°46' W 118°15'0 0.0
2015-Feb-22 16:33N 33°46' W 118°15'0 0.0
2015-Feb-22 15:34N 33°46' W 118°15'0 0.0
2015-Feb-22 14:34N 33°46' W 118°15'0 0.0
2015-Feb-22 13:33N 33°46' W 118°15'0 0.0
2015-Feb-22 12:33N 33°46' W 118°15'0 0.0
2015-Feb-22 11:34N 33°46' W 118°15'0 0.0
2015-Feb-22 10:34N 33°46' W 118°15'0 0.0
2015-Feb-22 09:34N 33°46' W 118°15'0 0.0
2015-Feb-22 08:25N 33°46' W 118°15'0 0.0
2015-Feb-22 07:30N 33°46' W 118°15'0 0.0
2015-Feb-22 06:30N 33°46' W 118°15'0 0.0
2015-Feb-22 05:30N 33°46' W 118°15'0 0.0
2015-Feb-22 04:30N 33°46' W 118°15'0 0.0
2015-Feb-22 03:30N 33°46' W 118°15'0 0.0
2015-Feb-22 02:30N 33°46' W 118°15'0 0.0
2015-Feb-22 01:30N 33°46' W 118°15'0 0.0
2015-Feb-22 00:34N 33°46' W 118°15'0 0.0
2015-Feb-21 23:34N 33°46' W 118°15'0 0.0
2015-Feb-21 22:33N 33°46' W 118°15'0 0.0
2015-Feb-21 21:33N 33°46' W 118°15'0 0.0
2015-Feb-21 20:33N 33°46' W 118°15'0 0.0
2015-Feb-21 19:34N 33°46' W 118°15'0 0.0
2015-Feb-21 18:33N 33°46' W 118°15'0 0.0
2015-Feb-21 17:33N 33°46' W 118°15'0 0.0
2015-Feb-21 16:34N 33°46' W 118°15'0 0.0
2015-Feb-21 15:33N 33°46' W 118°15'0 0.0
2015-Feb-21 14:34N 33°46' W 118°15'0 0.0
2015-Feb-21 13:33N 33°46' W 118°15'0 0.0
2015-Feb-21 12:30N 33°46' W 118°15'0 0.0
2015-Feb-21 11:33N 33°46' W 118°15'0 0.0
2015-Feb-21 10:34N 33°46' W 118°15'0 0.0
2015-Feb-21 09:34N 33°46' W 118°15'0 0.0
2015-Feb-21 06:24N 33°46' W 118°15'0 0.2
2015-Feb-21 05:33N 33°46' W 118°16'4 3.7
2015-Feb-21 04:33N 33°42' W 118°14'2 0.5
2015-Feb-21 00:23N 33°41' W 118°12'0 0.0
2015-Feb-20 23:17N 33°41' W 118°12'0 0.0
2015-Feb-20 22:29N 33°41' W 118°12'0 0.0
2015-Feb-20 21:32N 33°41' W 118°12'0 0.1
2015-Feb-20 20:32N 33°41' W 118°12'0 0.2
2015-Feb-20 19:26N 33°41' W 118°12'13 7.1
2015-Feb-20 17:33N 33°28' W 118°06'1111.2
2015-Feb-20 16:33N 33°18' W 118°02'5 5.2
2015-Feb-20 15:33N 33°14' W 117°58'0 0.2
2015-Feb-20 14:33N 33°14' W 117°58'4 4.0
2015-Feb-20 13:33N 33°15' W 118°03'5 5.2
2015-Feb-20 12:33N 33°11' W 117°59'1211.5
2015-Feb-20 11:33N 32°60' W 117°54'1010.4
2015-Feb-20 10:33N 32°50' W 117°51'1110.8
2015-Feb-20 09:33N 32°39' W 117°48'  

Dump ship's entire track history